sensor_id;sensor_type;location;lat;lon;timestamp;temperature;humidity
22161;DHT22;49035;48.812;11.762;2023-09-30T00:00:59;12.50;99.90
22161;DHT22;49035;48.812;11.762;2023-09-30T00:03:25;12.50;99.90
22161;DHT22;49035;48.812;11.762;2023-09-30T00:05:51;12.60;99.90
22161;DHT22;49035;48.812;11.762;2023-09-30T00:08:17;12.60;99.90
22161;DHT22;49035;48.812;11.762;2023-09-30T00:10:42;12.60;99.90
22161;DHT22;49035;48.812;11.762;2023-09-30T00:13:08;12.60;99.90
22161;DHT22;49035;48.812;11.762;2023-09-30T00:15:34;12.70;99.90
22161;DHT22;49035;48.812;11.762;2023-09-30T00:17:59;12.70;99.90
22161;DHT22;49035;48.812;11.762;2023-09-30T00:20:29;12.60;99.90
22161;DHT22;49035;48.812;11.762;2023-09-30T00:22:55;12.60;99.90
22161;DHT22;49035;48.812;11.762;2023-09-30T00:25:20;12.60;99.90
22161;DHT22;49035;48.812;11.762;2023-09-30T00:27:47;12.50;99.90
22161;DHT22;49035;48.812;11.762;2023-09-30T00:30:12;12.50;99.90
22161;DHT22;49035;48.812;11.762;2023-09-30T00:32:38;12.50;99.90
22161;DHT22;49035;48.812;11.762;2023-09-30T00:35:05;12.50;99.90
22161;DHT22;49035;48.812;11.762;2023-09-30T00:37:39;12.40;99.90
22161;DHT22;49035;48.812;11.762;2023-09-30T00:40:05;12.40;99.90
22161;DHT22;49035;48.812;11.762;2023-09-30T00:42:31;12.40;99.90
22161;DHT22;49035;48.812;11.762;2023-09-30T00:44:57;12.30;99.90
22161;DHT22;49035;48.812;11.762;2023-09-30T00:47:23;12.40;99.90
22161;DHT22;49035;48.812;11.762;2023-09-30T00:49:50;12.50;99.90
22161;DHT22;49035;48.812;11.762;2023-09-30T00:52:16;12.60;99.90
22161;DHT22;49035;48.812;11.762;2023-09-30T00:54:43;12.70;99.90
22161;DHT22;49035;48.812;11.762;2023-09-30T00:57:09;12.80;99.90
22161;DHT22;49035;48.812;11.762;2023-09-30T00:59:35;13.00;99.90
22161;DHT22;49035;48.812;11.762;2023-09-30T01:02:01;13.10;99.90
22161;DHT22;49035;48.812;11.762;2023-09-30T01:04:28;13.30;99.90
22161;DHT22;49035;48.812;11.762;2023-09-30T01:06:54;13.40;99.90
22161;DHT22;49035;48.812;11.762;2023-09-30T01:09:20;13.50;99.90
22161;DHT22;49035;48.812;11.762;2023-09-30T01:11:46;13.50;99.90
22161;DHT22;49035;48.812;11.762;2023-09-30T01:14:28;13.50;99.90
22161;DHT22;49035;48.812;11.762;2023-09-30T01:16:54;13.60;99.90
22161;DHT22;49035;48.812;11.762;2023-09-30T01:19:20;13.70;99.90
22161;DHT22;49035;48.812;11.762;2023-09-30T01:21:46;13.70;99.90
22161;DHT22;49035;48.812;11.762;2023-09-30T01:24:15;13.70;99.90
22161;DHT22;49035;48.812;11.762;2023-09-30T01:26:40;13.70;99.90
22161;DHT22;49035;48.812;11.762;2023-09-30T01:29:08;13.70;99.90
22161;DHT22;49035;48.812;11.762;2023-09-30T01:31:37;13.70;99.90
22161;DHT22;49035;48.812;11.762;2023-09-30T01:34:04;13.80;99.90
22161;DHT22;49035;48.812;11.762;2023-09-30T01:36:29;13.80;99.90
22161;DHT22;49035;48.812;11.762;2023-09-30T01:38:55;13.90;99.90
22161;DHT22;49035;48.812;11.762;2023-09-30T01:41:21;13.90;99.90
22161;DHT22;49035;48.812;11.762;2023-09-30T01:43:46;13.90;99.90
22161;DHT22;49035;48.812;11.762;2023-09-30T01:46:15;13.90;99.90
22161;DHT22;49035;48.812;11.762;2023-09-30T01:48:41;13.90;99.90
22161;DHT22;49035;48.812;11.762;2023-09-30T01:51:06;13.80;99.90
22161;DHT22;49035;48.812;11.762;2023-09-30T01:53:32;13.80;99.90
22161;DHT22;49035;48.812;11.762;2023-09-30T01:55:58;13.80;99.90
22161;DHT22;49035;48.812;11.762;2023-09-30T01:58:24;13.80;99.90
22161;DHT22;49035;48.812;11.762;2023-09-30T02:00:52;13.70;99.90
22161;DHT22;49035;48.812;11.762;2023-09-30T02:03:17;13.60;99.90
22161;DHT22;49035;48.812;11.762;2023-09-30T02:05:43;13.60;99.90
22161;DHT22;49035;48.812;11.762;2023-09-30T02:08:09;13.60;99.90
22161;DHT22;49035;48.812;11.762;2023-09-30T02:10:34;13.50;99.90
22161;DHT22;49035;48.812;11.762;2023-09-30T02:13:00;13.50;99.90
22161;DHT22;49035;48.812;11.762;2023-09-30T02:15:26;13.40;99.90
22161;DHT22;49035;48.812;11.762;2023-09-30T02:17:52;13.30;99.90
22161;DHT22;49035;48.812;11.762;2023-09-30T02:20:17;13.30;99.90
22161;DHT22;49035;48.812;11.762;2023-09-30T02:22:47;13.30;99.90
22161;DHT22;49035;48.812;11.762;2023-09-30T02:25:14;13.20;99.90
22161;DHT22;49035;48.812;11.762;2023-09-30T02:27:41;13.30;99.90
22161;DHT22;49035;48.812;11.762;2023-09-30T02:30:08;13.20;99.90
22161;DHT22;49035;48.812;11.762;2023-09-30T02:32:34;13.10;99.90
22161;DHT22;49035;48.812;11.762;2023-09-30T02:35:00;13.00;99.90
22161;DHT22;49035;48.812;11.762;2023-09-30T02:37:25;12.90;99.90
22161;DHT22;49035;48.812;11.762;2023-09-30T02:39:51;12.80;99.90
22161;DHT22;49035;48.812;11.762;2023-09-30T02:42:16;12.70;99.90
22161;DHT22;49035;48.812;11.762;2023-09-30T02:44:42;12.60;99.90
22161;DHT22;49035;48.812;11.762;2023-09-30T02:47:08;12.50;99.90
22161;DHT22;49035;48.812;11.762;2023-09-30T02:49:34;12.30;99.90
22161;DHT22;49035;48.812;11.762;2023-09-30T02:52:00;12.10;99.90
22161;DHT22;49035;48.812;11.762;2023-09-30T02:54:26;12.00;99.90
22161;DHT22;49035;48.812;11.762;2023-09-30T02:56:52;11.90;99.90
22161;DHT22;49035;48.812;11.762;2023-09-30T02:59:18;11.80;99.90
22161;DHT22;49035;48.812;11.762;2023-09-30T03:01:44;11.80;99.90
22161;DHT22;49035;48.812;11.762;2023-09-30T03:04:10;11.80;99.90
22161;DHT22;49035;48.812;11.762;2023-09-30T03:06:38;11.80;99.90
22161;DHT22;49035;48.812;11.762;2023-09-30T03:09:04;11.70;99.90
22161;DHT22;49035;48.812;11.762;2023-09-30T03:11:33;11.70;99.90
22161;DHT22;49035;48.812;11.762;2023-09-30T03:13:59;11.60;99.90
22161;DHT22;49035;48.812;11.762;2023-09-30T03:16:25;11.50;99.90
22161;DHT22;49035;48.812;11.762;2023-09-30T03:18:51;11.60;99.90
22161;DHT22;49035;48.812;11.762;2023-09-30T03:21:16;11.50;99.90
22161;DHT22;49035;48.812;11.762;2023-09-30T03:23:43;11.50;99.90
22161;DHT22;49035;48.812;11.762;2023-09-30T03:26:09;11.50;99.90
22161;DHT22;49035;48.812;11.762;2023-09-30T03:28:36;11.70;99.90
22161;DHT22;49035;48.812;11.762;2023-09-30T03:31:03;11.80;99.90
22161;DHT22;49035;48.812;11.762;2023-09-30T03:33:31;11.70;99.90
22161;DHT22;49035;48.812;11.762;2023-09-30T03:35:57;11.80;99.90
22161;DHT22;49035;48.812;11.762;2023-09-30T03:38:24;11.70;99.90
22161;DHT22;49035;48.812;11.762;2023-09-30T03:40:49;11.60;99.90
22161;DHT22;49035;48.812;11.762;2023-09-30T03:43:16;11.70;99.90
22161;DHT22;49035;48.812;11.762;2023-09-30T03:45:42;11.50;99.90
22161;DHT22;49035;48.812;11.762;2023-09-30T03:48:07;11.30;99.90
22161;DHT22;49035;48.812;11.762;2023-09-30T03:50:35;11.10;99.90
22161;DHT22;49035;48.812;11.762;2023-09-30T03:53:04;11.00;99.90
22161;DHT22;49035;48.812;11.762;2023-09-30T03:55:31;10.90;99.90
22161;DHT22;49035;48.812;11.762;2023-09-30T03:57:57;10.80;99.90
22161;DHT22;49035;48.812;11.762;2023-09-30T04:00:23;10.80;99.90
22161;DHT22;49035;48.812;11.762;2023-09-30T04:02:50;10.70;99.90
22161;DHT22;49035;48.812;11.762;2023-09-30T04:05:21;10.60;99.90
22161;DHT22;49035;48.812;11.762;2023-09-30T04:07:58;10.40;99.90
22161;DHT22;49035;48.812;11.762;2023-09-30T04:10:24;10.30;99.90
22161;DHT22;49035;48.812;11.762;2023-09-30T04:12:50;10.30;99.90
22161;DHT22;49035;48.812;11.762;2023-09-30T04:15:16;10.40;99.90
22161;DHT22;49035;48.812;11.762;2023-09-30T04:17:42;10.40;99.90
22161;DHT22;49035;48.812;11.762;2023-09-30T04:20:08;10.40;99.90
22161;DHT22;49035;48.812;11.762;2023-09-30T04:22:36;10.30;99.90
22161;DHT22;49035;48.812;11.762;2023-09-30T04:25:03;10.20;99.90
22161;DHT22;49035;48.812;11.762;2023-09-30T04:27:34;10.20;99.90
22161;DHT22;49035;48.812;11.762;2023-09-30T04:30:01;10.20;99.90
22161;DHT22;49035;48.812;11.762;2023-09-30T04:32:32;10.30;99.90
22161;DHT22;49035;48.812;11.762;2023-09-30T04:34:58;10.40;99.90
22161;DHT22;49035;48.812;11.762;2023-09-30T04:37:25;10.40;99.90
22161;DHT22;49035;48.812;11.762;2023-09-30T04:39:51;10.40;99.90
22161;DHT22;49035;48.812;11.762;2023-09-30T04:42:16;10.50;99.90
22161;DHT22;49035;48.812;11.762;2023-09-30T04:44:43;10.80;99.90
22161;DHT22;49035;48.812;11.762;2023-09-30T04:47:09;10.70;99.90
22161;DHT22;49035;48.812;11.762;2023-09-30T04:49:34;10.60;99.90
22161;DHT22;49035;48.812;11.762;2023-09-30T04:52:01;10.50;99.90
22161;DHT22;49035;48.812;11.762;2023-09-30T04:54:26;10.40;99.90
22161;DHT22;49035;48.812;11.762;2023-09-30T04:56:52;10.30;99.90
22161;DHT22;49035;48.812;11.762;2023-09-30T04:59:17;10.10;99.90
22161;DHT22;49035;48.812;11.762;2023-09-30T05:01:43;10.10;99.90
22161;DHT22;49035;48.812;11.762;2023-09-30T05:04:08;10.10;99.90
22161;DHT22;49035;48.812;11.762;2023-09-30T05:06:34;10.20;99.90
22161;DHT22;49035;48.812;11.762;2023-09-30T05:09:00;10.30;99.90
22161;DHT22;49035;48.812;11.762;2023-09-30T05:11:26;10.40;99.90
22161;DHT22;49035;48.812;11.762;2023-09-30T05:13:51;10.50;99.90
22161;DHT22;49035;48.812;11.762;2023-09-30T05:16:18;10.50;99.90
22161;DHT22;49035;48.812;11.762;2023-09-30T05:18:43;10.60;99.90
22161;DHT22;49035;48.812;11.762;2023-09-30T05:21:09;10.80;99.90
22161;DHT22;49035;48.812;11.762;2023-09-30T05:23:36;11.00;99.90
22161;DHT22;49035;48.812;11.762;2023-09-30T05:26:02;11.20;99.90
22161;DHT22;49035;48.812;11.762;2023-09-30T05:28:27;11.40;99.90
22161;DHT22;49035;48.812;11.762;2023-09-30T05:30:53;11.70;99.90
22161;DHT22;49035;48.812;11.762;2023-09-30T05:33:19;11.80;99.90
22161;DHT22;49035;48.812;11.762;2023-09-30T05:35:44;11.90;99.90
22161;DHT22;49035;48.812;11.762;2023-09-30T05:38:10;11.90;99.90
22161;DHT22;49035;48.812;11.762;2023-09-30T05:40:36;12.00;99.90
22161;DHT22;49035;48.812;11.762;2023-09-30T05:43:02;12.00;99.90
22161;DHT22;49035;48.812;11.762;2023-09-30T05:45:31;12.20;99.90
22161;DHT22;49035;48.812;11.762;2023-09-30T05:48:01;12.20;99.90
22161;DHT22;49035;48.812;11.762;2023-09-30T05:50:30;12.30;99.90
22161;DHT22;49035;48.812;11.762;2023-09-30T05:52:57;12.40;99.90
22161;DHT22;49035;48.812;11.762;2023-09-30T05:55:23;12.60;99.90
22161;DHT22;49035;48.812;11.762;2023-09-30T05:57:50;12.70;99.90
22161;DHT22;49035;48.812;11.762;2023-09-30T06:00:17;12.80;99.90
22161;DHT22;49035;48.812;11.762;2023-09-30T06:02:50;13.00;99.90
22161;DHT22;49035;48.812;11.762;2023-09-30T06:05:17;13.10;99.90
22161;DHT22;49035;48.812;11.762;2023-09-30T06:07:45;13.30;99.90
22161;DHT22;49035;48.812;11.762;2023-09-30T06:10:11;13.60;99.90
22161;DHT22;49035;48.812;11.762;2023-09-30T06:12:38;13.60;99.90
22161;DHT22;49035;48.812;11.762;2023-09-30T06:15:04;13.70;99.90
22161;DHT22;49035;48.812;11.762;2023-09-30T06:17:30;13.70;99.90
22161;DHT22;49035;48.812;11.762;2023-09-30T06:19:56;13.70;99.90
22161;DHT22;49035;48.812;11.762;2023-09-30T06:22:32;13.80;99.90
22161;DHT22;49035;48.812;11.762;2023-09-30T06:24:57;13.80;99.90
22161;DHT22;49035;48.812;11.762;2023-09-30T06:27:23;13.80;99.90
22161;DHT22;49035;48.812;11.762;2023-09-30T06:29:49;13.80;99.90
22161;DHT22;49035;48.812;11.762;2023-09-30T06:32:14;13.90;99.90
22161;DHT22;49035;48.812;11.762;2023-09-30T06:34:41;14.00;99.90
22161;DHT22;49035;48.812;11.762;2023-09-30T06:37:06;14.10;99.90
22161;DHT22;49035;48.812;11.762;2023-09-30T06:39:33;14.10;99.90
22161;DHT22;49035;48.812;11.762;2023-09-30T06:41:59;14.10;99.90
22161;DHT22;49035;48.812;11.762;2023-09-30T06:44:25;14.20;99.90
22161;DHT22;49035;48.812;11.762;2023-09-30T06:46:50;14.30;99.90
22161;DHT22;49035;48.812;11.762;2023-09-30T06:49:16;14.40;99.90
22161;DHT22;49035;48.812;11.762;2023-09-30T06:51:42;14.50;99.90
22161;DHT22;49035;48.812;11.762;2023-09-30T06:54:07;14.70;99.90
22161;DHT22;49035;48.812;11.762;2023-09-30T06:56:33;14.90;99.90
22161;DHT22;49035;48.812;11.762;2023-09-30T06:58:59;15.10;99.90
22161;DHT22;49035;48.812;11.762;2023-09-30T07:01:25;15.20;99.90
22161;DHT22;49035;48.812;11.762;2023-09-30T07:03:50;15.30;99.90
22161;DHT22;49035;48.812;11.762;2023-09-30T07:06:26;15.20;99.90
22161;DHT22;49035;48.812;11.762;2023-09-30T07:08:52;15.40;99.90
22161;DHT22;49035;48.812;11.762;2023-09-30T07:11:27;15.60;99.90
22161;DHT22;49035;48.812;11.762;2023-09-30T07:13:53;15.80;99.90
22161;DHT22;49035;48.812;11.762;2023-09-30T07:16:19;15.90;99.90
22161;DHT22;49035;48.812;11.762;2023-09-30T07:18:44;16.10;99.90
22161;DHT22;49035;48.812;11.762;2023-09-30T07:21:11;16.30;99.90
22161;DHT22;49035;48.812;11.762;2023-09-30T07:23:37;16.60;99.90
22161;DHT22;49035;48.812;11.762;2023-09-30T07:26:02;16.80;99.90
22161;DHT22;49035;48.812;11.762;2023-09-30T07:28:28;17.40;99.90
22161;DHT22;49035;48.812;11.762;2023-09-30T07:30:55;17.40;99.90
22161;DHT22;49035;48.812;11.762;2023-09-30T07:33:20;17.30;99.90
22161;DHT22;49035;48.812;11.762;2023-09-30T07:35:46;17.00;99.90
22161;DHT22;49035;48.812;11.762;2023-09-30T07:38:12;16.70;99.90
22161;DHT22;49035;48.812;11.762;2023-09-30T07:40:37;16.50;99.90
22161;DHT22;49035;48.812;11.762;2023-09-30T07:43:03;16.40;99.90
22161;DHT22;49035;48.812;11.762;2023-09-30T07:45:29;16.40;99.90
22161;DHT22;49035;48.812;11.762;2023-09-30T07:47:54;16.50;99.90
22161;DHT22;49035;48.812;11.762;2023-09-30T07:50:20;16.40;99.90
22161;DHT22;49035;48.812;11.762;2023-09-30T07:52:46;16.40;99.90
22161;DHT22;49035;48.812;11.762;2023-09-30T07:55:12;16.60;99.90
22161;DHT22;49035;48.812;11.762;2023-09-30T07:57:40;16.90;99.90
22161;DHT22;49035;48.812;11.762;2023-09-30T08:00:07;17.30;99.90
22161;DHT22;49035;48.812;11.762;2023-09-30T08:02:35;17.70;99.90
22161;DHT22;49035;48.812;11.762;2023-09-30T08:05:02;17.90;99.90
22161;DHT22;49035;48.812;11.762;2023-09-30T08:07:28;17.90;99.90
22161;DHT22;49035;48.812;11.762;2023-09-30T08:09:53;17.80;99.90
22161;DHT22;49035;48.812;11.762;2023-09-30T08:12:19;18.00;99.90
22161;DHT22;49035;48.812;11.762;2023-09-30T08:14:44;18.30;99.90
22161;DHT22;49035;48.812;11.762;2023-09-30T08:17:10;18.40;99.90
22161;DHT22;49035;48.812;11.762;2023-09-30T08:19:37;18.20;99.90
22161;DHT22;49035;48.812;11.762;2023-09-30T08:22:03;18.00;99.90
22161;DHT22;49035;48.812;11.762;2023-09-30T08:24:32;17.80;99.90
22161;DHT22;49035;48.812;11.762;2023-09-30T08:26:57;17.90;99.90
22161;DHT22;49035;48.812;11.762;2023-09-30T08:29:23;17.80;99.90
22161;DHT22;49035;48.812;11.762;2023-09-30T08:31:49;17.80;99.90
22161;DHT22;49035;48.812;11.762;2023-09-30T08:34:16;17.90;99.90
22161;DHT22;49035;48.812;11.762;2023-09-30T08:36:43;17.90;99.90
22161;DHT22;49035;48.812;11.762;2023-09-30T08:39:08;17.90;99.90
22161;DHT22;49035;48.812;11.762;2023-09-30T08:41:35;18.10;99.90
22161;DHT22;49035;48.812;11.762;2023-09-30T08:44:03;18.10;99.90
22161;DHT22;49035;48.812;11.762;2023-09-30T08:46:35;18.20;99.90
22161;DHT22;49035;48.812;11.762;2023-09-30T08:49:03;18.20;99.90
22161;DHT22;49035;48.812;11.762;2023-09-30T08:51:29;18.40;99.90
22161;DHT22;49035;48.812;11.762;2023-09-30T08:53:56;18.50;99.90
22161;DHT22;49035;48.812;11.762;2023-09-30T08:56:26;18.70;99.90
22161;DHT22;49035;48.812;11.762;2023-09-30T08:58:57;18.90;99.90
22161;DHT22;49035;48.812;11.762;2023-09-30T09:01:24;18.90;99.90
22161;DHT22;49035;48.812;11.762;2023-09-30T09:03:50;19.30;99.90
22161;DHT22;49035;48.812;11.762;2023-09-30T09:06:19;19.60;99.90
22161;DHT22;49035;48.812;11.762;2023-09-30T09:08:46;19.40;99.90
22161;DHT22;49035;48.812;11.762;2023-09-30T09:11:12;19.40;99.90
22161;DHT22;49035;48.812;11.762;2023-09-30T09:13:53;19.60;99.90
22161;DHT22;49035;48.812;11.762;2023-09-30T09:16:22;19.40;99.90
22161;DHT22;49035;48.812;11.762;2023-09-30T09:18:49;19.70;99.90
22161;DHT22;49035;48.812;11.762;2023-09-30T09:21:22;19.50;99.90
22161;DHT22;49035;48.812;11.762;2023-09-30T09:23:51;19.40;99.90
22161;DHT22;49035;48.812;11.762;2023-09-30T09:26:27;19.40;99.90
22161;DHT22;49035;48.812;11.762;2023-09-30T09:29:00;19.20;99.90
22161;DHT22;49035;48.812;11.762;2023-09-30T09:31:34;19.10;99.90
22161;DHT22;49035;48.812;11.762;2023-09-30T09:34:01;19.40;99.90
22161;DHT22;49035;48.812;11.762;2023-09-30T09:39:06;19.60;99.90
22161;DHT22;49035;48.812;11.762;2023-09-30T09:41:32;19.40;99.90
22161;DHT22;49035;48.812;11.762;2023-09-30T09:43:59;19.30;99.90
22161;DHT22;49035;48.812;11.762;2023-09-30T09:46:25;19.40;99.90
22161;DHT22;49035;48.812;11.762;2023-09-30T09:48:53;19.80;99.90
22161;DHT22;49035;48.812;11.762;2023-09-30T09:51:20;20.10;99.90
22161;DHT22;49035;48.812;11.762;2023-09-30T09:53:48;20.10;99.90
22161;DHT22;49035;48.812;11.762;2023-09-30T09:56:15;20.40;99.90
22161;DHT22;49035;48.812;11.762;2023-09-30T09:58:42;20.50;99.90
22161;DHT22;49035;48.812;11.762;2023-09-30T10:01:09;20.70;99.90
22161;DHT22;49035;48.812;11.762;2023-09-30T10:03:36;21.20;99.90
22161;DHT22;49035;48.812;11.762;2023-09-30T10:06:02;21.50;99.90
22161;DHT22;49035;48.812;11.762;2023-09-30T10:08:35;21.10;99.90
22161;DHT22;49035;48.812;11.762;2023-09-30T10:11:02;20.70;99.90
22161;DHT22;49035;48.812;11.762;2023-09-30T10:13:53;20.40;99.90
22161;DHT22;49035;48.812;11.762;2023-09-30T10:19:10;20.30;99.90
22161;DHT22;49035;48.812;11.762;2023-09-30T10:21:36;20.60;99.90
22161;DHT22;49035;48.812;11.762;2023-09-30T10:35:20;21.70;99.90
22161;DHT22;49035;48.812;11.762;2023-09-30T10:37:47;21.90;99.90
22161;DHT22;49035;48.812;11.762;2023-09-30T10:40:30;21.50;99.90
22161;DHT22;49035;48.812;11.762;2023-09-30T10:42:56;21.60;99.90
22161;DHT22;49035;48.812;11.762;2023-09-30T10:50:52;20.80;99.90
22161;DHT22;49035;48.812;11.762;2023-09-30T10:53:18;20.70;99.90
22161;DHT22;49035;48.812;11.762;2023-09-30T10:55:45;20.60;99.90
22161;DHT22;49035;48.812;11.762;2023-09-30T10:58:13;20.40;99.90
22161;DHT22;49035;48.812;11.762;2023-09-30T11:00:38;20.00;99.90
22161;DHT22;49035;48.812;11.762;2023-09-30T11:03:04;20.10;99.90
22161;DHT22;49035;48.812;11.762;2023-09-30T11:05:31;20.60;99.90
22161;DHT22;49035;48.812;11.762;2023-09-30T11:08:02;21.00;99.90
22161;DHT22;49035;48.812;11.762;2023-09-30T11:10:29;20.80;99.90
22161;DHT22;49035;48.812;11.762;2023-09-30T11:12:58;20.60;99.90
22161;DHT22;49035;48.812;11.762;2023-09-30T11:15:24;20.70;99.90
22161;DHT22;49035;48.812;11.762;2023-09-30T11:17:52;21.10;99.90
22161;DHT22;49035;48.812;11.762;2023-09-30T11:20:18;21.30;99.40
22161;DHT22;49035;48.812;11.762;2023-09-30T11:22:44;21.10;99.30
22161;DHT22;49035;48.812;11.762;2023-09-30T11:25:18;21.10;96.90
22161;DHT22;49035;48.812;11.762;2023-09-30T11:27:45;21.40;98.40
22161;DHT22;49035;48.812;11.762;2023-09-30T11:30:12;21.70;97.70
22161;DHT22;49035;48.812;11.762;2023-09-30T11:32:38;22.20;95.30
22161;DHT22;49035;48.812;11.762;2023-09-30T11:35:09;22.20;94.40
22161;DHT22;49035;48.812;11.762;2023-09-30T11:37:35;22.40;94.60
22161;DHT22;49035;48.812;11.762;2023-09-30T11:40:13;22.30;93.80
22161;DHT22;49035;48.812;11.762;2023-09-30T11:42:41;22.30;93.10
22161;DHT22;49035;48.812;11.762;2023-09-30T11:45:21;22.10;94.30
22161;DHT22;49035;48.812;11.762;2023-09-30T11:47:49;21.80;94.40
22161;DHT22;49035;48.812;11.762;2023-09-30T11:50:15;21.30;94.40
22161;DHT22;49035;48.812;11.762;2023-09-30T11:52:44;21.20;94.20
22161;DHT22;49035;48.812;11.762;2023-09-30T11:55:11;21.10;95.80
22161;DHT22;49035;48.812;11.762;2023-09-30T11:57:38;21.50;95.60
22161;DHT22;49035;48.812;11.762;2023-09-30T12:00:04;21.40;95.10
22161;DHT22;49035;48.812;11.762;2023-09-30T12:02:38;21.30;94.80
22161;DHT22;49035;48.812;11.762;2023-09-30T12:05:06;21.20;93.00
22161;DHT22;49035;48.812;11.762;2023-09-30T12:07:37;21.00;94.20
22161;DHT22;49035;48.812;11.762;2023-09-30T12:10:03;20.80;95.10
22161;DHT22;49035;48.812;11.762;2023-09-30T12:12:28;20.70;95.00
22161;DHT22;49035;48.812;11.762;2023-09-30T12:14:54;20.50;95.20
22161;DHT22;49035;48.812;11.762;2023-09-30T12:17:20;20.50;93.90
22161;DHT22;49035;48.812;11.762;2023-09-30T12:19:47;20.60;95.10
22161;DHT22;49035;48.812;11.762;2023-09-30T12:22:13;20.60;95.60
22161;DHT22;49035;48.812;11.762;2023-09-30T12:24:39;20.60;95.00
22161;DHT22;49035;48.812;11.762;2023-09-30T12:27:05;20.80;96.10
22161;DHT22;49035;48.812;11.762;2023-09-30T12:29:31;20.80;95.00
22161;DHT22;49035;48.812;11.762;2023-09-30T12:31:57;20.90;95.90
22161;DHT22;49035;48.812;11.762;2023-09-30T12:34:22;21.10;95.30
22161;DHT22;49035;48.812;11.762;2023-09-30T12:36:52;21.00;93.90
22161;DHT22;49035;48.812;11.762;2023-09-30T12:39:18;21.10;94.80
22161;DHT22;49035;48.812;11.762;2023-09-30T12:41:49;21.20;95.60
22161;DHT22;49035;48.812;11.762;2023-09-30T12:44:14;21.20;94.30
22161;DHT22;49035;48.812;11.762;2023-09-30T12:46:40;21.30;93.80
22161;DHT22;49035;48.812;11.762;2023-09-30T12:49:06;21.30;93.30
22161;DHT22;49035;48.812;11.762;2023-09-30T12:51:33;21.30;93.60
22161;DHT22;49035;48.812;11.762;2023-09-30T12:53:59;21.40;93.60
22161;DHT22;49035;48.812;11.762;2023-09-30T12:56:25;21.50;92.90
22161;DHT22;49035;48.812;11.762;2023-09-30T12:58:51;21.30;93.50
22161;DHT22;49035;48.812;11.762;2023-09-30T13:01:16;21.30;93.30
22161;DHT22;49035;48.812;11.762;2023-09-30T13:03:44;21.30;94.60
22161;DHT22;49035;48.812;11.762;2023-09-30T13:06:10;21.30;93.40
22161;DHT22;49035;48.812;11.762;2023-09-30T13:08:35;21.30;92.70
22161;DHT22;49035;48.812;11.762;2023-09-30T13:11:02;21.30;93.60
22161;DHT22;49035;48.812;11.762;2023-09-30T13:13:29;21.20;93.40
22161;DHT22;49035;48.812;11.762;2023-09-30T13:15:57;21.30;93.50
22161;DHT22;49035;48.812;11.762;2023-09-30T13:18:23;21.30;93.40
22161;DHT22;49035;48.812;11.762;2023-09-30T13:20:48;21.30;93.00
22161;DHT22;49035;48.812;11.762;2023-09-30T13:23:14;21.30;91.80
22161;DHT22;49035;48.812;11.762;2023-09-30T13:25:39;21.10;91.80
22161;DHT22;49035;48.812;11.762;2023-09-30T13:28:05;21.20;92.90
22161;DHT22;49035;48.812;11.762;2023-09-30T13:30:31;21.60;92.60
22161;DHT22;49035;48.812;11.762;2023-09-30T13:32:57;21.50;87.30
22161;DHT22;49035;48.812;11.762;2023-09-30T13:35:23;21.50;89.80
22161;DHT22;49035;48.812;11.762;2023-09-30T13:37:48;21.50;86.50
22161;DHT22;49035;48.812;11.762;2023-09-30T13:40:14;21.70;88.20
22161;DHT22;49035;48.812;11.762;2023-09-30T13:42:40;21.50;92.40
22161;DHT22;49035;48.812;11.762;2023-09-30T13:45:06;21.50;94.30
22161;DHT22;49035;48.812;11.762;2023-09-30T13:47:33;21.50;91.00
22161;DHT22;49035;48.812;11.762;2023-09-30T13:49:59;21.30;91.50
22161;DHT22;49035;48.812;11.762;2023-09-30T13:52:25;21.40;91.50
22161;DHT22;49035;48.812;11.762;2023-09-30T13:54:51;21.30;91.50
22161;DHT22;49035;48.812;11.762;2023-09-30T13:57:17;21.40;91.70
22161;DHT22;49035;48.812;11.762;2023-09-30T13:59:42;21.30;93.40
22161;DHT22;49035;48.812;11.762;2023-09-30T14:02:08;21.10;92.00
22161;DHT22;49035;48.812;11.762;2023-09-30T14:04:33;21.00;92.80
22161;DHT22;49035;48.812;11.762;2023-09-30T14:07:02;20.90;93.20
22161;DHT22;49035;48.812;11.762;2023-09-30T14:09:29;20.60;92.80
22161;DHT22;49035;48.812;11.762;2023-09-30T14:11:55;20.40;93.80
22161;DHT22;49035;48.812;11.762;2023-09-30T14:14:20;20.40;94.80
22161;DHT22;49035;48.812;11.762;2023-09-30T14:16:46;20.40;95.10
22161;DHT22;49035;48.812;11.762;2023-09-30T14:19:12;20.50;95.40
22161;DHT22;49035;48.812;11.762;2023-09-30T14:21:42;20.40;93.30
22161;DHT22;49035;48.812;11.762;2023-09-30T14:24:07;20.30;93.80
22161;DHT22;49035;48.812;11.762;2023-09-30T14:26:33;20.30;93.90
22161;DHT22;49035;48.812;11.762;2023-09-30T14:28:59;20.00;93.70
22161;DHT22;49035;48.812;11.762;2023-09-30T14:31:25;19.80;94.20
22161;DHT22;49035;48.812;11.762;2023-09-30T14:33:51;19.70;95.10
22161;DHT22;49035;48.812;11.762;2023-09-30T14:36:17;19.80;94.80
22161;DHT22;49035;48.812;11.762;2023-09-30T14:38:44;19.70;94.80
22161;DHT22;49035;48.812;11.762;2023-09-30T14:41:12;19.60;95.70
22161;DHT22;49035;48.812;11.762;2023-09-30T14:43:38;19.60;97.00
22161;DHT22;49035;48.812;11.762;2023-09-30T14:46:05;19.70;96.60
22161;DHT22;49035;48.812;11.762;2023-09-30T14:48:30;19.60;95.70
22161;DHT22;49035;48.812;11.762;2023-09-30T14:50:56;19.50;95.50
22161;DHT22;49035;48.812;11.762;2023-09-30T14:53:23;19.40;96.10
22161;DHT22;49035;48.812;11.762;2023-09-30T14:55:50;19.30;96.70
22161;DHT22;49035;48.812;11.762;2023-09-30T14:58:15;19.20;96.80
22161;DHT22;49035;48.812;11.762;2023-09-30T15:00:41;19.10;97.10
22161;DHT22;49035;48.812;11.762;2023-09-30T15:03:07;19.10;97.80
22161;DHT22;49035;48.812;11.762;2023-09-30T15:05:33;19.10;97.90
22161;DHT22;49035;48.812;11.762;2023-09-30T15:07:59;18.90;99.50
22161;DHT22;49035;48.812;11.762;2023-09-30T15:10:27;18.90;99.00
22161;DHT22;49035;48.812;11.762;2023-09-30T15:12:53;18.70;98.90
22161;DHT22;49035;48.812;11.762;2023-09-30T15:15:18;18.70;99.30
22161;DHT22;49035;48.812;11.762;2023-09-30T15:17:44;18.50;99.50
22161;DHT22;49035;48.812;11.762;2023-09-30T15:20:10;18.60;99.60
22161;DHT22;49035;48.812;11.762;2023-09-30T15:22:36;18.60;99.90
22161;DHT22;49035;48.812;11.762;2023-09-30T15:25:02;18.50;99.90
22161;DHT22;49035;48.812;11.762;2023-09-30T15:27:28;18.50;99.90
22161;DHT22;49035;48.812;11.762;2023-09-30T15:29:53;18.40;99.90
22161;DHT22;49035;48.812;11.762;2023-09-30T15:32:20;18.30;99.90
22161;DHT22;49035;48.812;11.762;2023-09-30T15:34:45;18.20;99.90